sensor_id;sensor_type;location;lat;lon;timestamp;temperature;humidity
36548;DHT22;22551;52.206;4.856;2022-12-07T00:03:50;3.40;99.90
36548;DHT22;22551;52.206;4.856;2022-12-07T00:08:53;3.30;99.90
36548;DHT22;22551;52.206;4.856;2022-12-07T00:13:59;3.30;99.90
36548;DHT22;22551;52.206;4.856;2022-12-07T00:19:04;3.10;99.90
36548;DHT22;22551;52.206;4.856;2022-12-07T00:24:06;3.00;99.90
36548;DHT22;22551;52.206;4.856;2022-12-07T00:29:14;3.00;99.90
36548;DHT22;22551;52.206;4.856;2022-12-07T00:34:20;3.00;99.90
36548;DHT22;22551;52.206;4.856;2022-12-07T00:39:23;3.20;99.90
36548;DHT22;22551;52.206;4.856;2022-12-07T00:44:26;3.30;99.90
36548;DHT22;22551;52.206;4.856;2022-12-07T00:49:30;3.20;99.90
36548;DHT22;22551;52.206;4.856;2022-12-07T00:54:32;3.20;99.90
36548;DHT22;22551;52.206;4.856;2022-12-07T00:59:36;3.10;99.90
36548;DHT22;22551;52.206;4.856;2022-12-07T01:04:38;3.00;99.90
36548;DHT22;22551;52.206;4.856;2022-12-07T01:09:40;3.00;99.90
36548;DHT22;22551;52.206;4.856;2022-12-07T01:14:44;2.90;99.90
36548;DHT22;22551;52.206;4.856;2022-12-07T01:19:46;2.80;99.90
36548;DHT22;22551;52.206;4.856;2022-12-07T01:24:49;2.70;99.90
36548;DHT22;22551;52.206;4.856;2022-12-07T01:29:52;2.60;99.90
36548;DHT22;22551;52.206;4.856;2022-12-07T01:34:54;2.60;99.90
36548;DHT22;22551;52.206;4.856;2022-12-07T01:39:57;2.90;99.90
36548;DHT22;22551;52.206;4.856;2022-12-07T01:50:47;3.90;99.90
36548;DHT22;22551;52.206;4.856;2022-12-07T01:55:52;4.00;99.90
36548;DHT22;22551;52.206;4.856;2022-12-07T02:00:56;3.90;99.90
36548;DHT22;22551;52.206;4.856;2022-12-07T02:05:59;3.80;99.90
36548;DHT22;22551;52.206;4.856;2022-12-07T02:11:02;3.70;99.90
36548;DHT22;22551;52.206;4.856;2022-12-07T02:16:17;3.60;99.90
36548;DHT22;22551;52.206;4.856;2022-12-07T02:21:32;3.50;99.90
36548;DHT22;22551;52.206;4.856;2022-12-07T02:27:15;3.40;99.90
36548;DHT22;22551;52.206;4.856;2022-12-07T02:32:31;3.40;99.90
36548;DHT22;22551;52.206;4.856;2022-12-07T02:37:43;3.30;99.90
36548;DHT22;22551;52.206;4.856;2022-12-07T02:42:55;3.20;99.90
36548;DHT22;22551;52.206;4.856;2022-12-07T02:48:03;3.20;99.90
36548;DHT22;22551;52.206;4.856;2022-12-07T02:53:31;3.20;99.90
36548;DHT22;22551;52.206;4.856;2022-12-07T02:58:43;3.00;99.90
36548;DHT22;22551;52.206;4.856;2022-12-07T03:03:58;2.90;99.90
36548;DHT22;22551;52.206;4.856;2022-12-07T03:09:13;2.70;99.90
36548;DHT22;22551;52.206;4.856;2022-12-07T03:14:20;2.60;99.90
36548;DHT22;22551;52.206;4.856;2022-12-07T03:19:27;2.50;99.90
36548;DHT22;22551;52.206;4.856;2022-12-07T03:24:33;2.40;99.90
36548;DHT22;22551;52.206;4.856;2022-12-07T03:29:43;2.30;99.90
36548;DHT22;22551;52.206;4.856;2022-12-07T03:34:53;2.30;99.90
36548;DHT22;22551;52.206;4.856;2022-12-07T03:40:03;2.20;99.90
36548;DHT22;22551;52.206;4.856;2022-12-07T03:45:10;2.20;99.90
36548;DHT22;22551;52.206;4.856;2022-12-07T03:50:21;2.10;99.90
36548;DHT22;22551;52.206;4.856;2022-12-07T03:55:30;2.20;99.90
36548;DHT22;22551;52.206;4.856;2022-12-07T04:00:34;2.30;99.90
36548;DHT22;22551;52.206;4.856;2022-12-07T04:05:38;2.40;99.90
36548;DHT22;22551;52.206;4.856;2022-12-07T04:10:41;2.30;99.90
36548;DHT22;22551;52.206;4.856;2022-12-07T04:15:43;2.30;99.90
36548;DHT22;22551;52.206;4.856;2022-12-07T04:20:47;2.20;99.90
36548;DHT22;22551;52.206;4.856;2022-12-07T04:25:49;2.20;99.90
36548;DHT22;22551;52.206;4.856;2022-12-07T04:30:51;2.30;99.90
36548;DHT22;22551;52.206;4.856;2022-12-07T04:35:55;2.10;99.90
36548;DHT22;22551;52.206;4.856;2022-12-07T04:40:57;2.00;99.90
36548;DHT22;22551;52.206;4.856;2022-12-07T04:45:59;2.00;99.90
36548;DHT22;22551;52.206;4.856;2022-12-07T04:51:04;1.90;99.90
36548;DHT22;22551;52.206;4.856;2022-12-07T04:56:07;1.90;99.90
36548;DHT22;22551;52.206;4.856;2022-12-07T05:01:09;1.80;99.90
36548;DHT22;22551;52.206;4.856;2022-12-07T05:06:13;1.70;99.90
36548;DHT22;22551;52.206;4.856;2022-12-07T05:11:16;1.90;99.90
36548;DHT22;22551;52.206;4.856;2022-12-07T05:16:32;2.10;99.90
36548;DHT22;22551;52.206;4.856;2022-12-07T05:21:36;2.00;99.90
36548;DHT22;22551;52.206;4.856;2022-12-07T05:26:39;2.00;99.90
36548;DHT22;22551;52.206;4.856;2022-12-07T05:31:41;2.00;99.90
36548;DHT22;22551;52.206;4.856;2022-12-07T05:36:45;2.10;99.90
36548;DHT22;22551;52.206;4.856;2022-12-07T05:41:47;2.20;99.90
36548;DHT22;22551;52.206;4.856;2022-12-07T05:47:07;2.30;99.90
36548;DHT22;22551;52.206;4.856;2022-12-07T05:52:10;2.60;99.90
36548;DHT22;22551;52.206;4.856;2022-12-07T05:57:13;2.60;99.90
36548;DHT22;22551;52.206;4.856;2022-12-07T06:02:16;2.60;99.90
36548;DHT22;22551;52.206;4.856;2022-12-07T06:07:20;2.50;99.90
36548;DHT22;22551;52.206;4.856;2022-12-07T06:12:23;2.50;99.90
36548;DHT22;22551;52.206;4.856;2022-12-07T06:17:40;2.50;99.90
36548;DHT22;22551;52.206;4.856;2022-12-07T06:22:43;2.50;99.90
36548;DHT22;22551;52.206;4.856;2022-12-07T06:27:45;2.50;99.90
36548;DHT22;22551;52.206;4.856;2022-12-07T06:32:48;2.50;99.90
36548;DHT22;22551;52.206;4.856;2022-12-07T06:37:51;2.60;99.90
36548;DHT22;22551;52.206;4.856;2022-12-07T06:42:53;2.60;99.90
36548;DHT22;22551;52.206;4.856;2022-12-07T06:47:56;2.60;99.90
36548;DHT22;22551;52.206;4.856;2022-12-07T06:52:59;2.50;99.90
36548;DHT22;22551;52.206;4.856;2022-12-07T06:58:01;2.60;99.90
36548;DHT22;22551;52.206;4.856;2022-12-07T07:03:04;2.50;99.90
36548;DHT22;22551;52.206;4.856;2022-12-07T07:08:08;2.30;99.90
36548;DHT22;22551;52.206;4.856;2022-12-07T07:13:10;2.20;99.90
36548;DHT22;22551;52.206;4.856;2022-12-07T07:18:12;2.10;99.90
36548;DHT22;22551;52.206;4.856;2022-12-07T07:23:15;2.00;99.90
36548;DHT22;22551;52.206;4.856;2022-12-07T07:28:18;1.90;99.90
36548;DHT22;22551;52.206;4.856;2022-12-07T07:33:20;1.70;99.90
36548;DHT22;22551;52.206;4.856;2022-12-07T07:38:23;1.80;99.90
36548;DHT22;22551;52.206;4.856;2022-12-07T07:43:26;1.70;99.90
36548;DHT22;22551;52.206;4.856;2022-12-07T07:48:29;1.70;99.90
36548;DHT22;22551;52.206;4.856;2022-12-07T07:53:33;1.70;99.90
36548;DHT22;22551;52.206;4.856;2022-12-07T07:58:35;1.70;99.90
36548;DHT22;22551;52.206;4.856;2022-12-07T08:03:39;1.70;99.90
36548;DHT22;22551;52.206;4.856;2022-12-07T08:08:42;1.80;99.90
36548;DHT22;22551;52.206;4.856;2022-12-07T08:13:45;2.20;99.90
36548;DHT22;22551;52.206;4.856;2022-12-07T08:18:48;2.50;99.90
36548;DHT22;22551;52.206;4.856;2022-12-07T08:23:51;2.50;99.90
36548;DHT22;22551;52.206;4.856;2022-12-07T08:28:54;2.60;99.90
36548;DHT22;22551;52.206;4.856;2022-12-07T08:33:56;2.50;99.90
36548;DHT22;22551;52.206;4.856;2022-12-07T08:39:00;2.50;99.90
36548;DHT22;22551;52.206;4.856;2022-12-07T08:44:02;2.40;99.90
36548;DHT22;22551;52.206;4.856;2022-12-07T08:49:08;2.40;99.90
36548;DHT22;22551;52.206;4.856;2022-12-07T08:54:17;2.50;99.90
36548;DHT22;22551;52.206;4.856;2022-12-07T08:59:19;2.60;99.90
36548;DHT22;22551;52.206;4.856;2022-12-07T09:04:22;2.70;99.90
36548;DHT22;22551;52.206;4.856;2022-12-07T09:09:26;2.90;99.90
36548;DHT22;22551;52.206;4.856;2022-12-07T09:14:28;2.90;99.90
36548;DHT22;22551;52.206;4.856;2022-12-07T09:19:33;3.00;99.90
36548;DHT22;22551;52.206;4.856;2022-12-07T09:24:37;3.00;99.90
36548;DHT22;22551;52.206;4.856;2022-12-07T09:29:39;2.90;99.90
36548;DHT22;22551;52.206;4.856;2022-12-07T09:34:41;2.90;99.90
36548;DHT22;22551;52.206;4.856;2022-12-07T09:39:45;2.90;99.90
36548;DHT22;22551;52.206;4.856;2022-12-07T09:44:47;3.00;99.90
36548;DHT22;22551;52.206;4.856;2022-12-07T09:49:49;3.10;99.90
36548;DHT22;22551;52.206;4.856;2022-12-07T09:54:53;3.20;99.90
36548;DHT22;22551;52.206;4.856;2022-12-07T09:59:56;3.30;99.90
36548;DHT22;22551;52.206;4.856;2022-12-07T10:05:04;3.60;99.90
36548;DHT22;22551;52.206;4.856;2022-12-07T10:10:15;4.00;99.90
36548;DHT22;22551;52.206;4.856;2022-12-07T10:15:19;4.20;99.90
36548;DHT22;22551;52.206;4.856;2022-12-07T10:20:24;4.30;99.90
36548;DHT22;22551;52.206;4.856;2022-12-07T10:25:31;4.40;99.90
36548;DHT22;22551;52.206;4.856;2022-12-07T10:30:46;4.40;99.90
36548;DHT22;22551;52.206;4.856;2022-12-07T10:35:57;4.50;99.90
36548;DHT22;22551;52.206;4.856;2022-12-07T10:41:06;4.70;99.90
36548;DHT22;22551;52.206;4.856;2022-12-07T10:46:43;4.90;99.90
36548;DHT22;22551;52.206;4.856;2022-12-07T10:52:13;5.00;99.90
36548;DHT22;22551;52.206;4.856;2022-12-07T10:57:36;5.10;99.90
36548;DHT22;22551;52.206;4.856;2022-12-07T11:03:01;5.40;99.90
36548;DHT22;22551;52.206;4.856;2022-12-07T11:08:18;5.40;99.90
36548;DHT22;22551;52.206;4.856;2022-12-07T11:13:38;5.40;99.90
36548;DHT22;22551;52.206;4.856;2022-12-07T11:18:51;5.30;99.90
36548;DHT22;22551;52.206;4.856;2022-12-07T11:24:04;5.20;99.90
36548;DHT22;22551;52.206;4.856;2022-12-07T11:29:23;5.00;99.90
36548;DHT22;22551;52.206;4.856;2022-12-07T11:34:36;5.00;99.90
36548;DHT22;22551;52.206;4.856;2022-12-07T11:39:44;5.00;99.90
36548;DHT22;22551;52.206;4.856;2022-12-07T11:44:55;5.10;99.90
36548;DHT22;22551;52.206;4.856;2022-12-07T11:50:05;5.30;99.90
36548;DHT22;22551;52.206;4.856;2022-12-07T11:55:26;5.30;99.90
36548;DHT22;22551;52.206;4.856;2022-12-07T12:00:34;5.20;99.90
36548;DHT22;22551;52.206;4.856;2022-12-07T12:05:39;5.20;99.90
36548;DHT22;22551;52.206;4.856;2022-12-07T12:10:51;5.10;99.90
36548;DHT22;22551;52.206;4.856;2022-12-07T12:16:16;5.10;99.90
36548;DHT22;22551;52.206;4.856;2022-12-07T12:21:28;5.20;99.90
36548;DHT22;22551;52.206;4.856;2022-12-07T12:26:32;5.30;99.90
36548;DHT22;22551;52.206;4.856;2022-12-07T12:31:38;5.20;99.90
36548;DHT22;22551;52.206;4.856;2022-12-07T12:36:46;5.20;99.90
36548;DHT22;22551;52.206;4.856;2022-12-07T12:41:59;5.20;99.90
36548;DHT22;22551;52.206;4.856;2022-12-07T12:47:40;5.20;99.90
36548;DHT22;22551;52.206;4.856;2022-12-07T12:52:52;5.30;99.90
36548;DHT22;22551;52.206;4.856;2022-12-07T12:58:22;5.50;99.90
36548;DHT22;22551;52.206;4.856;2022-12-07T13:03:33;5.70;99.90
36548;DHT22;22551;52.206;4.856;2022-12-07T13:08:36;5.00;99.90
36548;DHT22;22551;52.206;4.856;2022-12-07T13:13:42;4.70;99.90
36548;DHT22;22551;52.206;4.856;2022-12-07T13:18:46;4.70;99.90
36548;DHT22;22551;52.206;4.856;2022-12-07T13:23:55;4.80;99.90
36548;DHT22;22551;52.206;4.856;2022-12-07T13:29:09;4.80;99.90
36548;DHT22;22551;52.206;4.856;2022-12-07T13:34:31;5.00;99.90
36548;DHT22;22551;52.206;4.856;2022-12-07T13:39:35;5.30;99.90
36548;DHT22;22551;52.206;4.856;2022-12-07T13:44:46;5.50;99.90
36548;DHT22;22551;52.206;4.856;2022-12-07T13:49:52;5.60;99.90
36548;DHT22;22551;52.206;4.856;2022-12-07T13:54:57;5.50;99.90
36548;DHT22;22551;52.206;4.856;2022-12-07T14:00:02;5.40;99.90
36548;DHT22;22551;52.206;4.856;2022-12-07T14:05:10;5.40;99.90
36548;DHT22;22551;52.206;4.856;2022-12-07T14:10:26;5.40;99.90
36548;DHT22;22551;52.206;4.856;2022-12-07T14:15:31;5.30;99.90
36548;DHT22;22551;52.206;4.856;2022-12-07T14:20:37;5.30;99.90
36548;DHT22;22551;52.206;4.856;2022-12-07T14:25:48;5.30;99.90
36548;DHT22;22551;52.206;4.856;2022-12-07T14:30:51;5.30;99.90
36548;DHT22;22551;52.206;4.856;2022-12-07T14:35:56;5.20;99.90
36548;DHT22;22551;52.206;4.856;2022-12-07T14:40:58;5.20;99.90
36548;DHT22;22551;52.206;4.856;2022-12-07T14:46:20;5.10;99.90
36548;DHT22;22551;52.206;4.856;2022-12-07T14:51:27;5.00;99.90
36548;DHT22;22551;52.206;4.856;2022-12-07T14:56:29;5.00;99.90
36548;DHT22;22551;52.206;4.856;2022-12-07T15:01:31;4.90;99.90
36548;DHT22;22551;52.206;4.856;2022-12-07T15:06:35;4.90;99.90
36548;DHT22;22551;52.206;4.856;2022-12-07T15:11:37;4.90;99.90
36548;DHT22;22551;52.206;4.856;2022-12-07T15:16:41;4.80;99.90
36548;DHT22;22551;52.206;4.856;2022-12-07T15:21:45;4.80;99.90
36548;DHT22;22551;52.206;4.856;2022-12-07T15:26:47;4.80;99.90
36548;DHT22;22551;52.206;4.856;2022-12-07T15:31:50;4.70;99.90
36548;DHT22;22551;52.206;4.856;2022-12-07T15:36:53;4.70;99.90
36548;DHT22;22551;52.206;4.856;2022-12-07T15:41:55;4.70;99.90
36548;DHT22;22551;52.206;4.856;2022-12-07T15:46:58;4.60;99.90
36548;DHT22;22551;52.206;4.856;2022-12-07T15:52:02;4.60;99.90
36548;DHT22;22551;52.206;4.856;2022-12-07T15:57:04;4.60;99.90
36548;DHT22;22551;52.206;4.856;2022-12-07T16:02:08;4.50;99.90
36548;DHT22;22551;52.206;4.856;2022-12-07T16:07:12;4.50;99.90
36548;DHT22;22551;52.206;4.856;2022-12-07T16:12:16;4.40;99.90
36548;DHT22;22551;52.206;4.856;2022-12-07T16:17:18;4.40;99.90
36548;DHT22;22551;52.206;4.856;2022-12-07T16:22:22;4.30;99.90
36548;DHT22;22551;52.206;4.856;2022-12-07T16:27:24;4.30;99.90
36548;DHT22;22551;52.206;4.856;2022-12-07T16:32:27;4.20;99.90
36548;DHT22;22551;52.206;4.856;2022-12-07T16:37:30;4.20;99.90
36548;DHT22;22551;52.206;4.856;2022-12-07T16:42:33;4.20;99.90
36548;DHT22;22551;52.206;4.856;2022-12-07T16:47:37;4.10;99.90
36548;DHT22;22551;52.206;4.856;2022-12-07T16:52:41;4.10;99.90
36548;DHT22;22551;52.206;4.856;2022-12-07T16:57:43;4.10;99.90
36548;DHT22;22551;52.206;4.856;2022-12-07T17:02:45;4.10;99.90
36548;DHT22;22551;52.206;4.856;2022-12-07T17:07:49;4.00;99.90
36548;DHT22;22551;52.206;4.856;2022-12-07T17:12:51;3.90;99.90
36548;DHT22;22551;52.206;4.856;2022-12-07T17:17:57;3.80;99.90
36548;DHT22;22551;52.206;4.856;2022-12-07T17:23:01;3.80;99.90
36548;DHT22;22551;52.206;4.856;2022-12-07T17:28:03;3.80;99.90
36548;DHT22;22551;52.206;4.856;2022-12-07T17:33:05;3.80;99.90
36548;DHT22;22551;52.206;4.856;2022-12-07T17:38:12;3.80;99.90
36548;DHT22;22551;52.206;4.856;2022-12-07T17:43:14;3.80;99.90
36548;DHT22;22551;52.206;4.856;2022-12-07T17:48:16;3.80;99.90
36548;DHT22;22551;52.206;4.856;2022-12-07T17:53:20;3.80;99.90
36548;DHT22;22551;52.206;4.856;2022-12-07T17:58:22;3.90;99.90
36548;DHT22;22551;52.206;4.856;2022-12-07T18:03:24;3.90;99.90
36548;DHT22;22551;52.206;4.856;2022-12-07T18:08:28;3.90;99.90
36548;DHT22;22551;52.206;4.856;2022-12-07T18:13:31;3.90;99.90
36548;DHT22;22551;52.206;4.856;2022-12-07T18:18:40;4.00;99.90
36548;DHT22;22551;52.206;4.856;2022-12-07T18:23:45;4.00;99.90
36548;DHT22;22551;52.206;4.856;2022-12-07T18:28:49;4.00;99.90
36548;DHT22;22551;52.206;4.856;2022-12-07T18:33:52;4.00;99.90
36548;DHT22;22551;52.206;4.856;2022-12-07T18:38:57;4.10;99.90
36548;DHT22;22551;52.206;4.856;2022-12-07T18:43:59;4.00;99.90
36548;DHT22;22551;52.206;4.856;2022-12-07T18:49:02;4.10;99.90
36548;DHT22;22551;52.206;4.856;2022-12-07T18:54:06;4.10;99.90
36548;DHT22;22551;52.206;4.856;2022-12-07T18:59:12;4.10;99.90
36548;DHT22;22551;52.206;4.856;2022-12-07T19:04:32;4.00;99.90
36548;DHT22;22551;52.206;4.856;2022-12-07T19:09:36;4.00;99.90
36548;DHT22;22551;52.206;4.856;2022-12-07T19:14:38;4.00;99.90
36548;DHT22;22551;52.206;4.856;2022-12-07T19:19:42;3.90;99.90
36548;DHT22;22551;52.206;4.856;2022-12-07T19:24:48;4.00;99.90
36548;DHT22;22551;52.206;4.856;2022-12-07T19:29:52;4.00;99.90
36548;DHT22;22551;52.206;4.856;2022-12-07T19:34:54;4.00;99.90
36548;DHT22;22551;52.206;4.856;2022-12-07T19:39:58;4.00;99.90
36548;DHT22;22551;52.206;4.856;2022-12-07T19:45:01;4.00;99.90
36548;DHT22;22551;52.206;4.856;2022-12-07T19:50:04;4.00;99.90
36548;DHT22;22551;52.206;4.856;2022-12-07T19:55:09;3.90;99.90
36548;DHT22;22551;52.206;4.856;2022-12-07T20:00:12;3.90;99.90
36548;DHT22;22551;52.206;4.856;2022-12-07T20:05:15;3.80;99.90
36548;DHT22;22551;52.206;4.856;2022-12-07T20:10:19;3.80;99.90
36548;DHT22;22551;52.206;4.856;2022-12-07T20:15:21;3.80;99.90
36548;DHT22;22551;52.206;4.856;2022-12-07T20:20:23;3.70;99.90
36548;DHT22;22551;52.206;4.856;2022-12-07T20:25:27;3.70;99.90
36548;DHT22;22551;52.206;4.856;2022-12-07T20:30:29;3.70;99.90
36548;DHT22;22551;52.206;4.856;2022-12-07T20:35:34;3.70;99.90
36548;DHT22;22551;52.206;4.856;2022-12-07T20:40:38;3.70;99.90
36548;DHT22;22551;52.206;4.856;2022-12-07T20:45:43;3.60;99.90
36548;DHT22;22551;52.206;4.856;2022-12-07T20:50:46;3.60;99.90
36548;DHT22;22551;52.206;4.856;2022-12-07T20:55:49;3.60;99.90
36548;DHT22;22551;52.206;4.856;2022-12-07T21:00:51;3.50;99.90
36548;DHT22;22551;52.206;4.856;2022-12-07T21:05:54;3.40;99.90
36548;DHT22;22551;52.206;4.856;2022-12-07T21:10:58;3.40;99.90
36548;DHT22;22551;52.206;4.856;2022-12-07T21:16:04;3.40;99.90
36548;DHT22;22551;52.206;4.856;2022-12-07T21:21:08;3.40;99.90
36548;DHT22;22551;52.206;4.856;2022-12-07T21:26:14;3.30;99.90
36548;DHT22;22551;52.206;4.856;2022-12-07T21:31:17;3.30;99.90
36548;DHT22;22551;52.206;4.856;2022-12-07T21:36:22;3.30;99.90
36548;DHT22;22551;52.206;4.856;2022-12-07T21:41:27;3.30;99.90
36548;DHT22;22551;52.206;4.856;2022-12-07T21:46:31;3.30;99.90
36548;DHT22;22551;52.206;4.856;2022-12-07T21:51:34;3.30;99.90
36548;DHT22;22551;52.206;4.856;2022-12-07T21:56:40;3.40;99.90
36548;DHT22;22551;52.206;4.856;2022-12-07T22:01:44;3.40;99.90
36548;DHT22;22551;52.206;4.856;2022-12-07T22:06:48;3.50;99.90
36548;DHT22;22551;52.206;4.856;2022-12-07T22:11:52;3.60;99.90
36548;DHT22;22551;52.206;4.856;2022-12-07T22:16:57;3.60;99.90
36548;DHT22;22551;52.206;4.856;2022-12-07T22:21:59;3.60;99.90
36548;DHT22;22551;52.206;4.856;2022-12-07T22:27:03;3.70;99.90
36548;DHT22;22551;52.206;4.856;2022-12-07T22:32:05;3.70;99.90
36548;DHT22;22551;52.206;4.856;2022-12-07T22:37:08;3.80;99.90
36548;DHT22;22551;52.206;4.856;2022-12-07T22:42:11;3.80;99.90
36548;DHT22;22551;52.206;4.856;2022-12-07T22:47:14;3.90;99.90
36548;DHT22;22551;52.206;4.856;2022-12-07T22:52:17;3.90;99.90
36548;DHT22;22551;52.206;4.856;2022-12-07T22:57:21;3.80;99.90
36548;DHT22;22551;52.206;4.856;2022-12-07T23:02:23;3.80;99.90
36548;DHT22;22551;52.206;4.856;2022-12-07T23:07:25;3.80;99.90
36548;DHT22;22551;52.206;4.856;2022-12-07T23:12:28;3.80;99.90
36548;DHT22;22551;52.206;4.856;2022-12-07T23:17:48;3.70;99.90
36548;DHT22;22551;52.206;4.856;2022-12-07T23:22:50;3.70;99.90
36548;DHT22;22551;52.206;4.856;2022-12-07T23:27:54;3.70;99.90
36548;DHT22;22551;52.206;4.856;2022-12-07T23:32:56;3.60;99.90
36548;DHT22;22551;52.206;4.856;2022-12-07T23:37:58;3.60;99.90
36548;DHT22;22551;52.206;4.856;2022-12-07T23:43:02;3.70;99.90
36548;DHT22;22551;52.206;4.856;2022-12-07T23:48:05;3.70;99.90
36548;DHT22;22551;52.206;4.856;2022-12-07T23:53:07;3.80;99.90
36548;DHT22;22551;52.206;4.856;2022-12-07T23:58:10;3.80;99.90
